Station History

Weather Underground - logo

Station Historical Data
Daily Summary for January 27, 2018 Units:  English    Metric   Both
« Previous Day
Next Day »
Daily Weekly Monthly Yearly Custom
  High: Low: Average:
Temperature: 57.8 °F 33.2 °F 42.2 °F
Dew Point: 46.0 °F 31.5 °F 37.5 °F
Humidity: 95 % 62 % 84 %
Wind Speed: 5.8 mph 0.0 mph 1 mph
Wind Gust: 5.8 mph - -
Wind:- - South
Pressure: 30.49 in 30.39 in -
Precipitation: 0.00 in    
Historical Graphs
 
 
Tabular Data for January 27, 2018
Time Temperature Dew Point Pressure Wind Wind Speed Wind Gust Humidity Rainfall Rate (Hourly)
00:00 39.1 °F 36.4 °F 30.39 in Calm     90 % 0.00 in
00:05 39.0 °F 36.6 °F 30.39 in Calm     91 % 0.00 in
00:10 39.1 °F 36.7 °F 30.39 in Calm     91 % 0.00 in
00:15 38.5 °F 35.8 °F 30.39 in Calm     90 % 0.00 in
00:20 38.3 °F 35.6 °F 30.39 in Calm   0.4 mph 90 % 0.00 in
00:25 38.1 °F 35.4 °F 30.39 in Calm   0.1 mph 90 % 0.00 in
00:30 37.8 °F 35.1 °F 30.39 in Calm     90 % 0.00 in
00:36 37.8 °F 35.4 °F 30.39 in Calm     91 % 0.00 in
00:41 37.8 °F 35.4 °F 30.39 in Calm     91 % 0.00 in
00:46 37.7 °F 35.3 °F 30.39 in Calm     91 % 0.00 in
00:51 38.0 °F 35.9 °F 30.39 in Calm     92 % 0.00 in
00:56 37.9 °F 35.8 °F 30.39 in Calm     92 % 0.00 in
01:01 37.9 °F 35.8 °F 30.39 in Calm     92 % 0.00 in
01:06 38.1 °F 36.3 °F 30.39 in Calm     93 % 0.00 in
01:11 38.1 °F 36.0 °F 30.39 in Calm     92 % 0.00 in
01:16 37.5 °F 35.1 °F 30.39 in Calm     91 % 0.00 in
01:21 36.7 °F 34.0 °F 30.39 in Calm     90 % 0.00 in
01:26 36.4 °F 34.0 °F 30.39 in Calm     91 % 0.00 in
01:31 36.1 °F 33.7 °F 30.39 in Calm     91 % 0.00 in
01:36 36.1 °F 34.0 °F 30.39 in Calm     92 % 0.00 in
01:41 36.0 °F 33.9 °F 30.39 in Calm     92 % 0.00 in
01:46 35.9 °F 33.8 °F 30.39 in Calm     92 % 0.00 in
01:51 36.0 °F 33.9 °F 30.39 in Calm     92 % 0.00 in
01:56 36.0 °F 33.9 °F 30.39 in Calm     92 % 0.00 in
02:01 36.1 °F 34.3 °F 30.39 in Calm     93 % 0.00 in
02:06 36.1 °F 34.3 °F 30.39 in Calm     93 % 0.00 in
02:11 36.0 °F 34.2 °F 30.39 in Calm     93 % 0.00 in
02:16 35.9 °F 34.1 °F 30.39 in Calm     93 % 0.00 in
02:21 35.8 °F 34.0 °F 30.39 in Calm     93 % 0.00 in
02:26 35.7 °F 33.9 °F 30.39 in Calm     93 % 0.00 in
02:31 35.7 °F 33.9 °F 30.39 in Calm     93 % 0.00 in
02:36 35.8 °F 34.0 °F 30.39 in Calm     93 % 0.00 in
02:41 36.1 °F 34.5 °F 30.39 in Calm     94 % 0.00 in
02:46 36.1 °F 34.5 °F 30.39 in Calm     94 % 0.00 in
02:51 35.7 °F 33.9 °F 30.39 in Calm     93 % 0.00 in
02:56 35.6 °F 33.8 °F 30.40 in Calm     93 % 0.00 in
03:01 35.7 °F 33.9 °F 30.40 in Calm     93 % 0.00 in
03:06 35.6 °F 33.8 °F 30.40 in Calm     93 % 0.00 in
03:11 35.3 °F 33.5 °F 30.40 in Calm     93 % 0.00 in
03:16 35.4 °F 33.6 °F 30.40 in Calm     93 % 0.00 in
03:21 35.6 °F 33.8 °F 30.40 in Calm     93 % 0.00 in
03:26 35.8 °F 34.2 °F 30.40 in Calm     94 % 0.00 in
03:31 35.8 °F 34.0 °F 30.40 in Calm     93 % 0.00 in
03:36 35.8 °F 34.0 °F 30.40 in Calm     93 % 0.00 in
03:41 35.6 °F 33.8 °F 30.40 in Calm     93 % 0.00 in
03:46 35.5 °F 33.7 °F 30.40 in Calm     93 % 0.00 in
03:51 35.4 °F 33.6 °F 30.40 in Calm     93 % 0.00 in
03:56 35.7 °F 34.1 °F 30.40 in Calm     94 % 0.00 in
04:01 35.8 °F 34.0 °F 30.40 in Calm     93 % 0.00 in
04:06 35.6 °F 33.8 °F 30.40 in Calm     93 % 0.00 in
04:11 35.5 °F 33.7 °F 30.40 in Calm     93 % 0.00 in
04:17 35.5 °F 33.7 °F 30.40 in Calm     93 % 0.00 in
04:21 35.5 °F 33.7 °F 30.40 in Calm     93 % 0.00 in
04:26 35.4 °F 33.6 °F 30.40 in Calm     93 % 0.00 in
04:32 35.0 °F 32.9 °F 30.40 in Calm     92 % 0.00 in
04:37 34.8 °F 33.0 °F 30.40 in Calm     93 % 0.00 in
04:42 34.9 °F 33.1 °F 30.40 in Calm     93 % 0.00 in
04:47 34.9 °F 33.1 °F 30.40 in Calm     93 % 0.00 in
04:52 35.0 °F 33.2 °F 30.40 in Calm     93 % 0.00 in
04:57 34.7 °F 32.9 °F 30.40 in Calm     93 % 0.00 in
05:02 34.3 °F 32.2 °F 30.40 in Calm     92 % 0.00 in
05:07 34.1 °F 32.3 °F 30.40 in Calm     93 % 0.00 in
05:12 34.0 °F 32.2 °F 30.40 in Calm     93 % 0.00 in
05:17 33.8 °F 32.0 °F 30.40 in Calm     93 % 0.00 in
05:22 33.7 °F 31.9 °F 30.41 in Calm     93 % 0.00 in
05:27 33.6 °F 31.8 °F 30.40 in Calm     93 % 0.00 in
05:32 33.5 °F 31.7 °F 30.40 in Calm     93 % 0.00 in
05:37 33.4 °F 31.6 °F 30.40 in Calm     93 % 0.00 in
05:42 33.3 °F 31.5 °F 30.40 in Calm     93 % 0.00 in
05:47 33.4 °F 31.6 °F 30.40 in Calm     93 % 0.00 in
05:52 33.5 °F 31.7 °F 30.40 in Calm     93 % 0.00 in
05:57 33.5 °F 32.0 °F 30.41 in Calm     94 % 0.00 in
06:02 33.7 °F 32.2 °F 30.41 in Calm     94 % 0.00 in
06:07 33.6 °F 32.1 °F 30.41 in Calm     94 % 0.00 in
06:12 33.7 °F 32.2 °F 30.42 in Calm     94 % 0.00 in
06:17 33.6 °F 32.1 °F 30.42 in Calm     94 % 0.00 in
06:22 33.5 °F 32.0 °F 30.43 in Calm     94 % 0.00 in
06:27 33.5 °F 32.0 °F 30.43 in Calm     94 % 0.00 in
06:32 33.6 °F 32.1 °F 30.43 in Calm     94 % 0.00 in
06:37 33.6 °F 32.1 °F 30.44 in Calm     94 % 0.00 in
06:42 33.5 °F 32.0 °F 30.44 in Calm     94 % 0.00 in
06:47 33.3 °F 31.8 °F 30.44 in Calm     94 % 0.00 in
06:52 33.3 °F 31.8 °F 30.44 in Calm     94 % 0.00 in
06:57 33.2 °F 31.7 °F 30.44 in Calm     94 % 0.00 in
07:02 33.2 °F 31.7 °F 30.45 in Calm     94 % 0.00 in
07:07 33.2 °F 31.7 °F 30.45 in Calm     94 % 0.00 in
07:12 33.2 °F 31.7 °F 30.45 in Calm     94 % 0.00 in
07:17 33.2 °F 31.7 °F 30.46 in Calm     94 % 0.00 in
07:22 33.4 °F 31.9 °F 30.46 in Calm     94 % 0.00 in
07:27 33.6 °F 32.1 °F 30.46 in Calm     94 % 0.00 in
07:32 34.0 °F 32.7 °F 30.46 in Calm     95 % 0.00 in
07:37 34.5 °F 33.2 °F 30.46 in Calm     95 % 0.00 in
07:42 35.0 °F 33.7 °F 30.46 in Calm     95 % 0.00 in
07:47 35.4 °F 34.1 °F 30.46 in Calm     95 % 0.00 in
07:52 35.9 °F 34.6 °F 30.46 in Calm     95 % 0.00 in
07:57 36.8 °F 35.5 °F 30.46 in Calm     95 % 0.00 in
08:02 38.3 °F 37.0 °F 30.46 in Calm   0.1 mph 95 % 0.00 in
08:07 39.5 °F 38.2 °F 30.46 in ESE 1.2 mph   95 % 0.00 in
08:12 40.3 °F 38.2 °F 30.46 in Calm     92 % 0.00 in
08:17 41.0 °F 38.6 °F 30.46 in SSE 1.2 mph 1.2 mph 91 % 0.00 in
08:22 41.4 °F 38.7 °F 30.46 in SE 1.2 mph 1.2 mph 90 % 0.00 in
08:27 41.5 °F 38.8 °F 30.46 in East 1.2 mph 1.2 mph 90 % 0.00 in
08:32 41.7 °F 39.0 °F 30.46 in ESE 2.3 mph 2.3 mph 90 % 0.00 in
08:37 42.1 °F 39.4 °F 30.46 in Calm     90 % 0.00 in
08:42 42.6 °F 39.6 °F 30.47 in East 1.2 mph 1.2 mph 89 % 0.00 in
08:47 43.3 °F 40.0 °F 30.47 in SE 1.2 mph 1.2 mph 88 % 0.00 in
08:52 44.1 °F 40.5 °F 30.47 in SSW 3.5 mph 3.5 mph 87 % 0.00 in
08:57 44.5 °F 40.3 °F 30.47 in SSE 2.3 mph 2.3 mph 85 % 0.00 in
09:02 44.7 °F 40.5 °F 30.47 in NE 1.2 mph 1.2 mph 85 % 0.00 in
09:07 45.1 °F 40.9 °F 30.47 in Calm     85 % 0.00 in
09:12 45.6 °F 40.7 °F 30.47 in SSE 2.3 mph 2.3 mph 83 % 0.00 in
09:17 46.1 °F 40.9 °F 30.47 in ENE 2.3 mph 2.3 mph 82 % 0.00 in
09:22 46.5 °F 41.0 °F 30.47 in East 2.3 mph 2.3 mph 81 % 0.00 in
09:27 46.9 °F 41.1 °F 30.48 in ESE 3.5 mph 3.5 mph 80 % 0.00 in
09:32 47.1 °F 41.2 °F 30.48 in SSE 2.3 mph 2.3 mph 80 % 0.00 in
09:37 47.7 °F 41.8 °F 30.48 in SE 3.5 mph 3.5 mph 80 % 0.00 in
09:42 48.3 °F 42.1 °F 30.48 in South 3.5 mph 3.5 mph 79 % 0.00 in
09:47 48.9 °F 42.0 °F 30.48 in SSE 2.3 mph 2.3 mph 77 % 0.00 in
09:52 49.4 °F 42.5 °F 30.48 in South 3.5 mph 3.5 mph 77 % 0.00 in
09:57 49.9 °F 43.0 °F 30.48 in Calm   0.2 mph 77 % 0.00 in
10:02 50.3 °F 42.7 °F 30.49 in SSE 5.8 mph 5.8 mph 75 % 0.00 in
10:07 50.8 °F 42.8 °F 30.49 in SSW 2.3 mph 2.3 mph 74 % 0.00 in
10:12 51.0 °F 42.6 °F 30.49 in South 3.5 mph 3.5 mph 73 % 0.00 in
10:17 51.4 °F 43.0 °F 30.49 in SSE 3.5 mph 3.5 mph 73 % 0.00 in
10:22 51.4 °F 43.0 °F 30.49 in SSW 3.5 mph   73 % 0.00 in
10:27 51.8 °F 43.4 °F 30.49 in SSW 2.0 mph 2.0 mph 73 % 0.00 in
10:32 52.1 °F 43.3 °F 30.49 in South 3.5 mph 3.5 mph 72 % 0.00 in
10:37 52.2 °F 43.4 °F 30.48 in ESE 3.5 mph 3.5 mph 72 % 0.00 in
10:42 52.5 °F 43.4 °F 30.48 in South 3.5 mph 3.5 mph 71 % 0.00 in
10:47 52.9 °F 43.4 °F 30.48 in SW 3.5 mph 3.5 mph 70 % 0.00 in
10:52 53.2 °F 43.3 °F 30.48 in East 3.5 mph 3.5 mph 69 % 0.00 in
10:57 53.4 °F 43.5 °F 30.47 in SE 3.5 mph 3.5 mph 69 % 0.00 in
11:02 53.6 °F 43.3 °F 30.47 in SSE 3.5 mph 3.5 mph 68 % 0.00 in
11:07 53.6 °F 43.3 °F 30.47 in SSE 2.3 mph 2.3 mph 68 % 0.00 in
11:12 54.0 °F 43.7 °F 30.47 in NE 3.5 mph 3.5 mph 68 % 0.00 in
11:17 54.4 °F 43.3 °F 30.47 in SSE 3.5 mph 3.5 mph 66 % 0.00 in
11:22 54.9 °F 43.7 °F 30.46 in SSE 4.6 mph 4.6 mph 66 % 0.00 in
11:27 55.3 °F 43.3 °F 30.46 in South 3.5 mph 3.5 mph 64 % 0.00 in
11:32 55.5 °F 43.5 °F 30.45 in East 2.3 mph 2.3 mph 64 % 0.00 in
11:37 55.8 °F 43.8 °F 30.46 in ESE 3.5 mph 3.5 mph 64 % 0.00 in
11:42 56.0 °F 44.4 °F 30.45 in SE 3.5 mph 3.5 mph 65 % 0.00 in
11:47 56.3 °F 43.9 °F 30.45 in East 2.3 mph 2.3 mph 63 % 0.00 in
11:52 56.5 °F 44.5 °F 30.45 in SE 3.5 mph 3.5 mph 64 % 0.00 in
11:57 56.7 °F 44.7 °F 30.45 in SSW 2.3 mph 2.3 mph 64 % 0.00 in
12:02 56.8 °F 44.3 °F 30.44 in SSE 2.3 mph 2.3 mph 63 % 0.00 in
12:07 56.4 °F 44.8 °F 30.44 in South 2.0 mph 2.0 mph 65 % 0.00 in
12:12 56.4 °F 44.0 °F 30.44 in NNW 1.2 mph 1.2 mph 63 % 0.00 in
12:17 56.7 °F 44.7 °F 30.44 in NNW 3.5 mph 3.5 mph 64 % 0.00 in
12:23 57.0 °F 44.1 °F 30.44 in WNW 3.5 mph 3.5 mph 62 % 0.00 in
12:28 57.0 °F 44.5 °F 30.44 in SSE 2.3 mph 2.3 mph 63 % 0.00 in
12:33 57.1 °F 45.0 °F 30.43 in SSW 2.3 mph 2.3 mph 64 % 0.00 in
12:38 57.2 °F 44.7 °F 30.43 in NNW 3.5 mph 3.5 mph 63 % 0.00 in
12:43 57.1 °F 45.0 °F 30.43 in NW 1.2 mph 1.2 mph 64 % 0.00 in
12:48 57.5 °F 44.6 °F 30.42 in WNW 1.2 mph 1.2 mph 62 % 0.00 in
12:53 57.4 °F 44.9 °F 30.42 in SE 1.2 mph 1.2 mph 63 % 0.00 in
12:58 57.8 °F 45.7 °F 30.42 in South 2.3 mph 2.3 mph 64 % 0.00 in
13:03 57.7 °F 46.0 °F 30.42 in NW 2.3 mph 2.3 mph 65 % 0.00 in
13:08 57.3 °F 45.2 °F 30.42 in SSE 1.2 mph 1.2 mph 64 % 0.00 in
13:13 57.2 °F 45.1 °F 30.41 in West 3.5 mph 3.5 mph 64 % 0.00 in
13:14 57.2 °F 45.1 °F 30.42 in WSW 2.3 mph 2.3 mph 64 % 0.00 in
13:18 57.2 °F 45.1 °F 30.42 in WSW 2.3 mph 2.3 mph 64 % 0.00 in
13:23 57.2 °F 45.1 °F 30.42 in WSW 2.3 mph 2.3 mph 64 % 0.00 in
14:11 57.2 °F 45.1 °F 30.42 in WSW 2.3 mph 2.3 mph 64 % 0.00 in
19:09 57.2 °F 45.1 °F 30.42 in WSW 2.3 mph 2.3 mph 64 % 0.00 in
23:11 57.2 °F 45.1 °F 30.42 in WSW 2.3 mph 2.3 mph 64 % 0.00 in
23:19 57.2 °F 45.1 °F 30.42 in WSW 2.3 mph 2.3 mph 64 % 0.00 in
Park Place, Exeter, Tulare County, California, USA
Compliments of Weather Underground - 2 mb